Pagrindinis puslapis
METAR-TAF:

METAR-TAF

Oro uostai :

Trasa Zeltweg

Zeltweg, Austrija

platuma: 47-12N, ilguma: 014-45E, Aukštis: 677 m

Dabartinis oras

Ataskaita buvo paskelbta 3 valandos ir 34 minutes, ne 20:50 UTC
Vėjas 3 kt iš Vakarų
Temperatūra 2°C
Drėgmė 80%
Slėgis 1015 hPa
Giedras dangus

METAR: LOXZ 282050Z 28003KT 10KM SKC 02/M01 Q1015

Laikas: 01:24 (00:24 UTC)

Prognozė

Ataskaita buvo paskelbta 13 valandos ir 9 minutes, ne 11:15 UTC
Prognozė galioja nuo 28 metu 12 UTC su 28 metu 21 UTC
Vėjas 3 kt nuo kintamojo kryptimis
Matomumas 10 km arba daugiau
Mažai debesys ne aukštis 6000 ft

TAF: LOXZ 281115Z 2812/2821 VRB03KT 9999 FEW060

Orai ataskaitas ir orų prognozės (METAR, TAF).

turimą stotys yra geltonos ir raudonos taškus žemėlapyje.

Perkelti pele per norėdami pamatyti stoties vardą.

Tada spustelėkite, norėdami matyti oro stebėjimo ir prognozės.

Norėdami pakeisti žemėlapį: spustelėkite ant žalios mygtukų su juodo kryžiaus žemyn,; žalią mygtuką su brūkšneliu, jei norite nutolinti; arba žalių rodyklių gretimoms žemėlapius.


METAR-TAF: